Time;durP1;ratioP1;P1;durP2;ratioP2;P2;SDS_P1;SDS_P2;PMS_P1;PMS_P2;Temp;Humidity;BMP_temperature;BMP_pressure;BME280_temperature;BME280_humidity;BME280_pressure;Samples;Min_cycle;Max_cycle;Signal;HPM_P1;HPM_P2
2024/01/25 00:00:06;;;;;;;3.42;1.90;;;;;;;-6.84;100.00;98628.00;6206652;23;20032;-58
2024/01/25 00:02:37;;;;;;;4.50;1.98;;;;;;;-6.78;100.00;98638.34;6191627;23;20020;-54
2024/01/25 00:05:08;;;;;;;2.80;1.95;;;;;;;-6.80;100.00;98640.00;6207248;23;20046;-55
2024/01/25 00:07:48;;;;;;;3.38;2.35;;;;;;;-6.80;100.00;98645.91;6191439;23;20031;-55
2024/01/25 00:10:20;;;;;;;2.33;1.52;;;;;;;-6.81;100.00;98643.34;6191961;23;20020;-55
2024/01/25 00:12:51;;;;;;;2.88;2.05;;;;;;;-6.76;100.00;98642.66;6206749;23;20020;-56
2024/01/25 00:15:21;;;;;;;5.40;2.42;;;;;;;-6.78;100.00;98643.44;6191427;23;20054;-53
2024/01/25 00:17:52;;;;;;;3.58;1.83;;;;;;;-6.74;100.00;98651.19;6205860;23;20024;-56
2024/01/25 00:20:22;;;;;;;2.15;1.90;;;;;;;-7.01;100.00;98589.50;6191793;23;20058;-55
2024/01/25 00:22:53;;;;;;;11.77;2.40;;;;;;;-6.71;100.00;98655.47;6206270;23;20518;-56
2024/01/25 00:25:25;;;;;;;2.70;2.10;;;;;;;-6.70;100.00;98657.19;6191225;23;20089;-56
2024/01/25 00:27:56;;;;;;;1.80;1.70;;;;;;;-6.70;100.00;98647.03;6206388;23;20091;-52
2024/01/25 00:30:27;;;;;;;2.35;1.70;;;;;;;-6.68;100.00;98659.78;6190743;23;20028;-57
2024/01/25 00:32:58;;;;;;;5.68;1.80;;;;;;;-6.67;100.00;98667.41;6206246;23;20024;-57
2024/01/25 00:35:29;;;;;;;5.20;2.22;;;;;;;-6.67;100.00;98649.63;6191420;23;20108;-57
2024/01/25 00:38:01;;;;;;;3.95;2.30;;;;;;;-6.67;100.00;98647.09;6206597;23;20020;-55
2024/01/25 00:40:33;;;;;;;2.08;1.80;;;;;;;-6.64;100.00;98666.63;6191599;23;20019;-55
2024/01/25 00:43:04;;;;;;;4.07;1.80;;;;;;;-6.65;100.00;98650.53;6206630;23;20058;-52
2024/01/25 00:45:36;;;;;;;4.90;1.70;;;;;;;-6.62;100.00;98657.38;6173846;23;20029;-57
2024/01/25 00:48:08;;;;;;;4.45;1.90;;;;;;;-6.62;100.00;98660.78;6199598;23;20030;-56
2024/01/25 00:50:40;;;;;;;3.85;1.80;;;;;;;-6.58;100.00;98672.75;6191487;23;20508;-58
2024/01/25 00:53:11;;;;;;;2.78;1.98;;;;;;;-6.63;100.00;98618.41;6206331;23;20028;-55
2024/01/25 00:55:44;;;;;;;3.45;1.80;;;;;;;-6.60;100.00;98669.31;6190555;23;20028;-55
2024/01/25 00:58:15;;;;;;;2.85;1.55;;;;;;;-6.60;100.00;98679.47;6190975;23;20016;-56
2024/01/25 01:00:46;;;;;;;6.22;1.90;;;;;;;-6.64;100.00;98642.13;6206221;23;20526;-56
2024/01/25 01:03:20;;;;;;;5.03;1.88;;;;;;;-6.60;100.00;98668.44;6190852;23;20024;-54
2024/01/25 01:05:50;;;;;;;2.05;1.45;;;;;;;-6.59;100.00;98676.13;6205746;23;20027;-56
2024/01/25 01:08:22;;;;;;;3.72;2.00;;;;;;;-6.58;100.00;98677.84;6191674;23;20075;-57
2024/01/25 01:10:54;;;;;;;2.95;1.83;;;;;;;-6.55;100.00;98672.81;6205690;23;20109;-59
2024/01/25 01:13:25;;;;;;;3.00;1.92;;;;;;;-6.56;100.00;98671.13;6165392;23;20046;-54
2024/01/25 01:15:55;;;;;;;4.68;1.83;;;;;;;-6.54;100.00;98668.59;6206177;23;20016;-58
2024/01/25 01:18:25;;;;;;;5.28;1.63;;;;;;;-6.54;100.00;98677.09;6191563;23;20114;-59
2024/01/25 01:20:56;;;;;;;4.72;2.00;;;;;;;-6.48;100.00;98678.09;6206029;23;20083;-56
2024/01/25 01:23:26;;;;;;;7.32;2.30;;;;;;;-6.48;100.00;98673.00;6191648;23;20051;-54
2024/01/25 01:25:58;;;;;;;5.07;2.05;;;;;;;-6.49;100.00;98682.28;6205561;23;20442;-56
2024/01/25 01:28:29;;;;;;;4.82;2.10;;;;;;;-6.48;100.00;98675.53;6190672;23;20453;-58
2024/01/25 01:30:59;;;;;;;2.72;1.90;;;;;;;-6.46;100.00;98676.41;6205845;23;20024;-53
2024/01/25 01:33:30;;;;;;;2.45;1.75;;;;;;;-6.47;100.00;98662.00;6191540;23;20111;-57
2024/01/25 01:36:00;;;;;;;6.15;2.25;;;;;;;-6.44;100.00;98667.16;6205982;23;20024;-56
2024/01/25 01:38:31;;;;;;;1.95;1.85;;;;;;;-6.38;100.00;98659.69;6191926;23;20063;-59
2024/01/25 01:41:03;;;;;;;2.78;1.60;;;;;;;-6.36;100.00;98670.78;6206059;23;20408;-59
2024/01/25 01:43:33;;;;;;;5.65;1.88;;;;;;;-6.39;100.00;98657.97;6191323;23;20033;-55
2024/01/25 01:46:11;;;;;;;2.25;2.00;;;;;;;-6.31;100.00;98661.59;6204949;23;20058;-52
2024/01/25 01:48:42;;;;;;;9.07;1.77;;;;;;;-6.31;100.00;98667.53;6190413;23;20106;-58
2024/01/25 01:51:13;;;;;;;3.10;1.60;;;;;;;-6.32;100.00;98655.59;6198495;23;20832;-55
2024/01/25 01:53:44;;;;;;;2.65;1.58;;;;;;;-6.27;100.00;98663.34;6205847;23;20024;-57
2024/01/25 01:56:17;;;;;;;2.50;1.73;;;;;;;-6.28;100.00;98665.88;6191466;23;20530;-56
2024/01/25 01:58:49;;;;;;;4.07;1.80;;;;;;;-6.24;100.00;98648.19;6205962;23;20698;-58
2024/01/25 02:01:20;;;;;;;4.43;1.58;;;;;;;-6.20;100.00;98656.75;6190933;23;20016;-56
2024/01/25 02:03:51;;;;;;;1.52;1.40;;;;;;;-6.21;100.00;98658.44;6205594;23;20028;-56
2024/01/25 02:06:22;;;;;;;2.67;1.58;;;;;;;-6.25;100.00;98641.38;6189895;23;20125;-55
2024/01/25 02:08:53;;;;;;;2.33;1.85;;;;;;;-6.18;100.00;98643.25;6205060;23;20020;-57
2024/01/25 02:11:24;;;;;;;2.60;1.80;;;;;;;-6.15;100.00;98638.22;6191230;23;20078;-56
2024/01/25 02:13:55;;;;;;;2.10;1.65;;;;;;;-6.16;100.00;98631.44;6205673;23;20031;-60
2024/01/25 02:16:26;;;;;;;1.85;1.50;;;;;;;-6.18;100.00;98638.16;6190271;23;20035;-59
2024/01/25 02:18:57;;;;;;;3.38;1.90;;;;;;;-6.17;100.00;98644.09;6205625;23;20082;-56
2024/01/25 02:21:28;;;;;;;3.08;1.58;;;;;;;-6.17;100.00;98644.09;6190029;23;20028;-57
2024/01/25 02:24:00;;;;;;;4.55;2.03;;;;;;;-6.12;100.00;98633.22;6205966;23;20026;-56
2024/01/25 02:26:31;;;;;;;4.60;1.83;;;;;;;-6.12;100.00;98628.13;6191613;23;20024;-57
2024/01/25 02:29:01;;;;;;;2.92;1.90;;;;;;;-6.16;100.00;98611.09;6205130;23;20023;-57
2024/01/25 02:31:32;;;;;;;2.47;1.80;;;;;;;-6.07;100.00;98615.53;6191060;23;20029;-55
2024/01/25 02:34:02;;;;;;;4.40;1.60;;;;;;;-6.08;100.00;98617.22;6205668;23;20020;-57
2024/01/25 02:36:33;;;;;;;4.60;2.95;;;;;;;-6.03;100.00;98617.34;6185744;23;20084;-58
2024/01/25 02:39:06;;;;;;;2.05;1.50;;;;;;;-6.07;100.00;98603.66;6201125;23;20031;-57
2024/01/25 02:41:36;;;;;;;1.92;1.67;;;;;;;-6.02;100.00;98613.09;6187833;23;20051;-59
2024/01/25 02:44:06;;;;;;;4.22;1.80;;;;;;;-6.07;100.00;98608.75;6201631;23;20095;-59
2024/01/25 02:46:37;;;;;;;2.05;1.55;;;;;;;-6.04;100.00;98586.78;6187371;23;20024;-59
2024/01/25 02:49:08;;;;;;;3.80;1.88;;;;;;;-6.03;100.00;98616.47;6202803;23;20060;-57
2024/01/25 02:51:38;;;;;;;2.03;1.65;;;;;;;-6.06;100.00;98612.19;6187348;23;20023;-59
2024/01/25 02:54:10;;;;;;;4.35;1.55;;;;;;;-6.07;100.00;98597.72;6202642;23;20058;-57
2024/01/25 02:56:41;;;;;;;2.60;1.70;;;;;;;-5.97;100.00;98611.50;6187444;23;20444;-58
2024/01/25 02:59:11;;;;;;;4.22;1.67;;;;;;;-5.99;100.00;98603.00;6205603;23;20079;-60
2024/01/25 03:01:44;;;;;;;2.53;1.60;;;;;;;-5.97;100.00;98606.44;6189127;23;20058;-57
2024/01/25 03:04:15;;;;;;;2.20;1.73;;;;;;;-5.96;100.00;98608.16;6188995;23;20055;-59
2024/01/25 03:06:46;;;;;;;2.15;1.60;;;;;;;-5.89;100.00;98599.78;6204428;23;20020;-60
2024/01/25 03:09:21;;;;;;;2.55;1.60;;;;;;;-5.92;100.00;98589.56;6189216;23;20031;-60
2024/01/25 03:11:51;;;;;;;5.63;2.33;;;;;;;-5.85;100.00;98612.63;6204755;23;20111;-59
2024/01/25 03:14:22;;;;;;;2.55;1.88;;;;;;;-5.94;100.00;98593.78;6190666;23;20103;-60
2024/01/25 03:16:52;;;;;;;2.47;1.73;;;;;;;-5.97;100.00;98591.16;6204604;23;20020;-58
2024/01/25 03:19:25;;;;;;;2.92;1.67;;;;;;;-5.98;100.00;98589.47;6189720;23;20340;-59
2024/01/25 03:21:56;;;;;;;3.88;1.95;;;;;;;-5.96;100.00;98577.66;6204834;23;20020;-59
2024/01/25 03:24:28;;;;;;;5.90;2.13;;;;;;;-5.97;100.00;98584.41;6189961;23;20030;-59
2024/01/25 03:26:59;;;;;;;2.80;1.60;;;;;;;-5.96;100.00;98577.66;6204502;23;20344;-59
2024/01/25 03:29:29;;;;;;;2.42;1.45;;;;;;;-6.05;100.00;98577.44;6190826;23;20093;-61
2024/01/25 03:32:00;;;;;;;6.10;2.05;;;;;;;-6.08;100.00;98589.25;6204914;23;20020;-58
2024/01/25 03:34:30;;;;;;;6.38;1.70;;;;;;;-6.10;100.00;98560.38;6190149;23;20143;-58
2024/01/25 03:37:01;;;;;;;3.08;1.80;;;;;;;-6.10;100.00;98570.56;6204457;23;20020;-57
2024/01/25 03:39:33;;;;;;;1.58;1.40;;;;;;;-5.97;100.00;98575.91;6189754;23;20031;-59
2024/01/25 03:42:03;;;;;;;3.20;2.10;;;;;;;-5.81;100.00;98572.88;6204938;23;20024;-56
2024/01/25 03:44:34;;;;;;;3.05;1.65;;;;;;;-5.69;100.00;98572.25;6190077;23;20318;-57
2024/01/25 03:47:05;;;;;;;3.97;1.50;;;;;;;-5.63;100.00;98570.69;6204357;23;20020;-57
2024/01/25 03:49:35;;;;;;;3.35;1.40;;;;;;;-5.49;100.00;98571.00;6189537;23;20530;-58
2024/01/25 03:52:07;;;;;;;2.38;1.70;;;;;;;-5.52;100.00;98586.19;6204078;23;20099;-58
2024/01/25 03:54:39;;;;;;;2.85;1.60;;;;;;;-5.46;100.00;98585.47;6189267;23;20031;-59
2024/01/25 03:57:10;;;;;;;1.20;1.15;;;;;;;-5.51;100.00;98576.88;6203921;23;20610;-59
2024/01/25 03:59:40;;;;;;;3.92;1.90;;;;;;;-5.46;100.00;98570.19;6188351;23;20023;-58
2024/01/25 04:02:10;;;;;;;2.80;1.50;;;;;;;-5.55;100.00;98578.47;6204503;23;20028;-60
2024/01/25 04:04:41;;;;;;;3.03;1.67;;;;;;;-5.52;100.00;98580.22;6188668;23;20023;-60
2024/01/25 04:07:12;;;;;;;2.75;1.60;;;;;;;-5.54;100.00;98581.88;6201081;23;20437;-59
2024/01/25 04:09:44;;;;;;;1.65;1.48;;;;;;;-5.53;100.00;98599.75;6202780;23;20095;-59
2024/01/25 04:12:14;;;;;;;2.60;1.98;;;;;;;-5.56;100.00;98570.84;6188818;23;20027;-58
2024/01/25 04:14:45;;;;;;;3.55;2.05;;;;;;;-5.60;100.00;98591.94;6203802;23;20392;-59
2024/01/25 04:17:16;;;;;;;6.00;1.73;;;;;;;-6.01;100.00;98541.09;6189467;23;20053;-59
2024/01/25 04:19:47;;;;;;;1.50;1.20;;;;;;;-5.56;100.00;98584.41;6203569;23;20024;-61
2024/01/25 04:22:17;;;;;;;3.22;1.95;;;;;;;-5.92;100.00;98559.03;6163197;23;20016;-59
2024/01/25 04:24:50;;;;;;;2.72;1.70;;;;;;;-5.59;100.00;98598.75;6203562;23;20346;-61
2024/01/25 04:27:20;;;;;;;3.15;1.50;;;;;;;-5.66;100.00;98598.63;6188413;23;20030;-60
2024/01/25 04:29:51;;;;;;;3.80;1.90;;;;;;;-5.62;100.00;98589.34;6203256;23;20016;-61
2024/01/25 04:32:21;;;;;;;3.30;2.00;;;;;;;-5.67;100.00;98607.06;6188843;23;20078;-59
2024/01/25 04:34:52;;;;;;;5.22;1.92;;;;;;;-5.71;100.00;98612.94;6203786;23;20044;-58
2024/01/25 04:37:22;;;;;;;4.75;1.60;;;;;;;-5.71;100.00;98605.31;6188437;23;20020;-61
2024/01/25 04:39:54;;;;;;;5.00;1.80;;;;;;;-5.59;100.00;98619.97;6204030;23;20099;-58
2024/01/25 04:42:25;;;;;;;1.75;1.60;;;;;;;-5.55;100.00;98625.97;6188682;23;20445;-60
2024/01/25 04:44:55;;;;;;;2.97;1.70;;;;;;;-5.52;100.00;98646.41;6203421;23;20039;-62
2024/01/25 04:47:26;;;;;;;4.03;1.60;;;;;;;-5.55;100.00;98631.06;6189260;23;20528;-62
2024/01/25 04:49:56;;;;;;;3.83;2.17;;;;;;;-5.66;100.00;98654.59;6203116;23;20202;-60
2024/01/25 04:52:27;;;;;;;2.58;1.67;;;;;;;-5.77;100.00;98643.31;6188425;23;20456;-61
2024/01/25 04:54:59;;;;;;;4.57;1.95;;;;;;;-5.83;100.00;98640.66;6203396;23;20103;-60
2024/01/25 04:57:30;;;;;;;2.75;1.73;;;;;;;-5.83;100.00;98643.19;6189040;23;20099;-60
2024/01/25 05:00:00;;;;;;;1.52;1.40;;;;;;;-6.19;100.00;98605.97;6204408;23;20537;-60
2024/01/25 05:02:31;;;;;;;3.15;1.48;;;;;;;-5.98;100.00;98655.59;6189654;23;20074;-61
2024/01/25 05:05:01;;;;;;;1.73;1.50;;;;;;;-6.05;100.00;98646.94;6203920;23;20027;-60
2024/01/25 05:07:32;;;;;;;3.22;1.45;;;;;;;-6.17;100.00;98644.97;6189150;23;20136;-60
2024/01/25 05:10:04;;;;;;;6.43;2.25;;;;;;;-6.12;100.00;98663.72;6203207;23;20047;-60
2024/01/25 05:12:35;;;;;;;4.60;1.95;;;;;;;-6.10;100.00;98672.25;6188647;23;20024;-58
2024/01/25 05:15:06;;;;;;;2.17;1.60;;;;;;;-6.11;100.00;98675.63;6203390;23;20031;-61
2024/01/25 05:17:36;;;;;;;3.17;1.90;;;;;;;-6.15;100.00;98668.75;6189189;23;20652;-58
2024/01/25 05:20:08;;;;;;;2.22;1.88;;;;;;;-6.21;100.00;98678.78;6202833;23;20352;-58
2024/01/25 05:22:41;;;;;;;3.95;1.70;;;;;;;-6.27;100.00;98688.78;6187215;23;20503;-59
2024/01/25 05:25:13;;;;;;;4.28;2.15;;;;;;;-6.72;100.00;98619.03;6201713;23;20107;-59
2024/01/25 05:27:44;;;;;;;6.65;2.15;;;;;;;-6.36;100.00;98688.56;6202985;23;20031;-61
2024/01/25 05:30:15;;;;;;;1.98;1.75;;;;;;;-6.42;100.00;98673.16;6188214;23;20016;-59
2024/01/25 05:32:46;;;;;;;1.98;1.70;;;;;;;-6.42;100.00;98699.41;6202721;23;20475;-60
2024/01/25 05:35:17;;;;;;;8.90;2.05;;;;;;;-6.73;100.00;98662.19;6188530;23;20038;-59
2024/01/25 05:37:48;;;;;;;3.88;1.95;;;;;;;-6.49;100.00;98702.59;6202903;23;20032;-60
2024/01/25 05:40:20;;;;;;;3.40;2.00;;;;;;;-6.51;100.00;98720.38;6188055;23;20082;-59
2024/01/25 05:42:52;;;;;;;2.97;1.95;;;;;;;-6.59;100.00;98719.31;6203438;23;20020;-60
2024/01/25 05:45:24;;;;;;;12.60;2.67;;;;;;;-6.57;100.00;98722.72;6188309;23;20034;-59
2024/01/25 05:47:55;;;;;;;5.43;1.60;;;;;;;-6.60;100.00;98730.28;6202883;23;20397;-61
2024/01/25 05:50:25;;;;;;;2.35;1.90;;;;;;;-6.60;100.00;98730.28;6189001;23;20082;-62
2024/01/25 05:52:56;;;;;;;4.88;2.00;;;;;;;-6.53;100.00;98744.88;6202926;23;20058;-58
2024/01/25 05:55:29;;;;;;;3.45;1.70;;;;;;;-6.51;100.00;98730.53;6185370;23;20062;-61
2024/01/25 05:58:00;;;;;;;8.35;2.22;;;;;;;-6.46;100.00;98727.22;6182215;23;20095;-60
2024/01/25 06:00:31;;;;;;;5.70;1.83;;;;;;;-6.49;100.00;98737.31;6188128;23;20106;-59
2024/01/25 06:03:01;;;;;;;3.85;1.77;;;;;;;-6.48;100.00;98739.91;6203468;23;20024;-59
2024/01/25 06:05:32;;;;;;;3.40;1.95;;;;;;;-6.47;100.00;98740.78;6189137;23;20037;-59
2024/01/25 06:08:03;;;;;;;5.35;1.83;;;;;;;-6.51;100.00;98735.63;6202964;23;20031;-58
2024/01/25 06:10:35;;;;;;;3.60;1.90;;;;;;;-6.57;100.00;98737.97;6188615;23;20381;-60
2024/01/25 06:13:06;;;;;;;2.67;1.70;;;;;;;-6.60;100.00;98750.59;6203076;23;20024;-60
2024/01/25 06:15:36;;;;;;;3.53;1.80;;;;;;;-6.63;100.00;98750.53;6187110;23;20032;-60
2024/01/25 06:18:07;;;;;;;6.35;2.35;;;;;;;-6.67;100.00;98763.94;6202877;23;20395;-58
2024/01/25 06:20:38;;;;;;;5.32;1.80;;;;;;;-6.76;100.00;98739.16;6187645;23;20043;-59
2024/01/25 06:23:09;;;;;;;3.80;1.83;;;;;;;-6.67;100.00;98743.63;6203035;23;20028;-58
2024/01/25 06:25:41;;;;;;;8.60;2.03;;;;;;;-6.69;100.00;98755.41;6187681;23;20044;-61
2024/01/25 06:28:12;;;;;;;5.60;1.60;;;;;;;-6.68;100.00;98758.84;6200769;23;20445;-59
2024/01/25 06:30:42;;;;;;;3.65;1.77;;;;;;;-6.72;100.00;98775.66;6202090;23;20043;-60
2024/01/25 06:33:13;;;;;;;4.82;1.60;;;;;;;-6.70;100.00;98756.25;6194289;23;20412;-59
2024/01/25 06:35:43;;;;;;;1.88;1.65;;;;;;;-6.69;100.00;98759.66;6202059;23;20034;-58
2024/01/25 06:38:14;;;;;;;1.50;1.40;;;;;;;-6.68;100.00;98761.38;6188569;23;20086;-61
2024/01/25 06:40:46;;;;;;;5.82;1.88;;;;;;;-6.66;100.00;98755.53;6202714;23;20052;-61
2024/01/25 06:43:17;;;;;;;2.85;1.83;;;;;;;-6.64;100.00;98769.16;6186461;23;20043;-60
2024/01/25 06:45:47;;;;;;;4.60;1.85;;;;;;;-6.62;100.00;98770.03;6202965;23;20103;-61
2024/01/25 06:48:18;;;;;;;4.75;1.90;;;;;;;-6.67;100.00;98748.72;6187459;23;20746;-62
2024/01/25 06:50:50;;;;;;;3.05;1.65;;;;;;;-6.64;100.00;98764.06;6201569;23;20534;-59
2024/01/25 06:53:22;;;;;;;3.28;1.75;;;;;;;-6.61;100.00;98778.53;6188533;23;20465;-61
2024/01/25 06:55:54;;;;;;;2.72;2.00;;;;;;;-6.65;100.00;98767.41;6201656;23;20069;-61
2024/01/25 06:58:25;;;;;;;3.28;2.13;;;;;;;-6.64;100.00;98769.16;6187849;23;20020;-62
2024/01/25 07:00:56;;;;;;;1.85;1.75;;;;;;;-6.65;100.00;98762.31;6202200;23;20024;-62
2024/01/25 07:03:27;;;;;;;6.15;1.77;;;;;;;-6.66;100.00;98775.84;6187351;23;20380;-61
2024/01/25 07:05:58;;;;;;;2.85;2.33;;;;;;;-6.65;100.00;98767.41;6202154;23;20119;-62
2024/01/25 07:08:28;;;;;;;2.33;1.70;;;;;;;-6.64;100.00;98780.97;6187725;23;20034;-60
2024/01/25 07:11:01;;;;;;;3.70;1.63;;;;;;;-6.67;100.00;98769.03;6202255;23;20032;-61
2024/01/25 07:13:32;;;;;;;5.35;2.05;;;;;;;-6.66;100.00;98780.06;6188018;23;20033;-62
2024/01/25 07:16:02;;;;;;;9.27;2.20;;;;;;;-6.66;100.00;98775.84;6202836;23;20096;-60
2024/01/25 07:18:34;;;;;;;3.20;1.83;;;;;;;-6.67;100.00;98774.13;6187830;23;20043;-60
2024/01/25 07:21:05;;;;;;;3.33;1.80;;;;;;;-6.66;100.00;98775.84;6201401;23;20347;-58
2024/01/25 07:23:35;;;;;;;4.72;1.50;;;;;;;-6.67;100.00;98784.28;6187206;23;20027;-59
2024/01/25 07:26:07;;;;;;;2.00;1.60;;;;;;;-6.66;100.00;98780.94;6202520;23;20066;-60
2024/01/25 07:28:38;;;;;;;2.55;2.10;;;;;;;-6.68;100.00;98782.56;6186472;23;20034;-62
2024/01/25 07:31:08;;;;;;;4.50;2.08;;;;;;;-6.69;100.00;98790.97;6172012;23;20029;-63
2024/01/25 07:33:39;;;;;;;5.25;2.50;;;;;;;-6.65;100.00;98800.44;6157321;23;20040;-62
2024/01/25 07:36:10;;;;;;;2.75;1.60;;;;;;;-6.65;100.00;98797.88;6172487;23;20452;-58
2024/01/25 07:38:42;;;;;;;3.70;2.05;;;;;;;-6.62;100.00;98805.59;6157160;23;20032;-61
2024/01/25 07:41:14;;;;;;;3.35;1.80;;;;;;;-6.60;100.00;98809.03;6165330;23;20151;-59
2024/01/25 07:43:45;;;;;;;4.03;2.03;;;;;;;-6.61;100.00;98814.94;6172925;23;20123;-60
2024/01/25 07:46:15;;;;;;;3.30;2.10;;;;;;;-6.60;100.00;98815.81;6159071;23;20104;-62
2024/01/25 07:48:46;;;;;;;2.30;1.60;;;;;;;-6.59;100.00;98818.41;6174009;23;20373;-62
2024/01/25 07:51:16;;;;;;;3.17;1.88;;;;;;;-6.58;100.00;98825.19;6159702;23;20055;-62
2024/01/25 07:53:48;;;;;;;5.30;2.53;;;;;;;-6.65;100.00;98808.06;6174315;23;20119;-60
2024/01/25 07:56:21;;;;;;;2.97;2.17;;;;;;;-6.57;100.00;98832.00;6159691;23;20315;-59
2024/01/25 07:58:52;;;;;;;2.80;2.00;;;;;;;-6.57;100.00;98838.75;6174494;23;20043;-60
2024/01/25 08:01:22;;;;;;;3.95;1.80;;;;;;;-6.60;100.00;98842.06;6158996;23;20145;-60
2024/01/25 08:03:53;;;;;;;3.00;2.05;;;;;;;-6.62;100.00;98833.53;6174045;23;20472;-62
2024/01/25 08:06:24;;;;;;;3.47;1.45;;;;;;;-6.61;100.00;98829.34;6159354;23;20024;-59
2024/01/25 08:08:54;;;;;;;2.47;2.10;;;;;;;-6.61;100.00;98835.28;6173740;23;20035;-63
2024/01/25 08:11:27;;;;;;;3.85;1.83;;;;;;;-6.96;100.00;98781.78;6159836;23;20181;-62
2024/01/25 08:13:57;;;;;;;3.65;1.70;;;;;;;-6.62;100.00;98843.69;6173933;23;20110;-63
2024/01/25 08:16:27;;;;;;;3.15;1.95;;;;;;;-6.61;100.00;98847.97;6158873;23;20088;-63
2024/01/25 08:18:58;;;;;;;3.78;2.40;;;;;;;-6.63;100.00;98842.00;6173924;23;20581;-59
2024/01/25 08:21:29;;;;;;;2.13;1.70;;;;;;;-6.63;100.00;98844.53;6159378;23;20032;-62
2024/01/25 08:24:00;;;;;;;5.53;1.90;;;;;;;-6.64;100.00;98858.06;6171920;23;20634;-62
2024/01/25 08:26:32;;;;;;;6.13;1.90;;;;;;;-6.65;100.00;98858.84;6158465;23;20028;-64
2024/01/25 08:29:03;;;;;;;1.98;1.73;;;;;;;-6.65;100.00;98853.78;6177306;23;20396;-65
2024/01/25 08:31:33;;;;;;;2.17;1.77;;;;;;;-6.65;100.00;98863.94;6189394;23;20033;-63
2024/01/25 08:34:04;;;;;;;2.33;1.60;;;;;;;-6.66;100.00;98852.06;6204330;23;20017;-62
2024/01/25 08:36:35;;;;;;;1.58;1.48;;;;;;;-6.73;100.00;98840.00;6188673;23;20020;-63
2024/01/25 08:39:08;;;;;;;2.60;1.73;;;;;;;-6.68;100.00;98853.69;6203361;23;20488;-63
2024/01/25 08:41:41;;;;;;;3.03;1.80;;;;;;;-6.68;100.00;98853.69;6188623;23;20024;-62
2024/01/25 08:44:12;;;;;;;4.57;2.47;;;;;;;-6.68;100.00;98853.69;6199483;23;20016;-63
2024/01/25 08:46:43;;;;;;;3.22;1.70;;;;;;;-6.67;100.00;98849.47;6203668;23;20504;-62
2024/01/25 08:49:13;;;;;;;4.20;2.00;;;;;;;-6.72;100.00;98852.72;6192301;23;20023;-63
2024/01/25 08:51:43;;;;;;;1.95;1.58;;;;;;;-6.66;100.00;98867.31;6203967;23;20031;-63
2024/01/25 08:54:14;;;;;;;3.58;1.95;;;;;;;-6.65;100.00;98863.94;6189172;23;20024;-61
2024/01/25 08:56:46;;;;;;;4.82;2.17;;;;;;;-6.67;100.00;98865.56;6203316;23;20020;-61
2024/01/25 08:59:18;;;;;;;2.95;1.85;;;;;;;-6.67;100.00;98855.41;6189303;23;20579;-62
2024/01/25 09:01:48;;;;;;;3.83;2.20;;;;;;;-6.66;100.00;98856.25;6203615;23;20372;-62
2024/01/25 09:04:19;;;;;;;3.47;1.90;;;;;;;-6.70;100.00;98860.41;6188713;23;20034;-59
2024/01/25 09:06:53;;;;;;;5.45;1.67;;;;;;;-6.65;100.00;98866.47;6203358;23;20041;-61
2024/01/25 09:09:23;;;;;;;5.38;2.28;;;;;;;-6.66;100.00;98857.16;6187727;23;20123;-62
2024/01/25 09:11:55;;;;;;;4.72;2.00;;;;;;;-6.66;100.00;98869.84;6203224;23;20028;-59
2024/01/25 09:14:26;;;;;;;4.22;1.83;;;;;;;-6.67;100.00;98865.56;6189380;23;20028;-62
2024/01/25 09:16:56;;;;;;;1.80;1.70;;;;;;;-6.69;100.00;98862.13;6203197;23;20023;-60
2024/01/25 09:19:27;;;;;;;1.95;1.65;;;;;;;-6.68;100.00;98878.25;6189056;23;20041;-62
2024/01/25 09:22:01;;;;;;;1.67;1.58;;;;;;;-6.70;100.00;98878.19;6203212;23;20031;-59
2024/01/25 09:24:34;;;;;;;6.22;2.10;;;;;;;-6.69;100.00;98882.44;6188889;23;20036;-62
2024/01/25 09:27:07;;;;;;;4.35;2.20;;;;;;;-6.68;100.00;98878.25;6203236;23;20078;-59
2024/01/25 09:29:39;;;;;;;2.85;2.05;;;;;;;-6.70;100.00;98885.81;6189135;23;20079;-63
2024/01/25 09:32:10;;;;;;;5.40;2.17;;;;;;;-6.68;100.00;98874.03;6203587;23;20407;-60
2024/01/25 09:34:41;;;;;;;2.58;1.70;;;;;;;-6.69;100.00;98882.44;6188257;23;20111;-62
2024/01/25 09:37:12;;;;;;;2.83;2.08;;;;;;;-6.68;100.00;98893.50;6198943;23;20695;-62
2024/01/25 09:39:41;;;;;;;3.80;1.70;;;;;;;-6.68;100.00;98894.34;6202862;23;20032;-61
2024/01/25 09:42:14;;;;;;;2.65;1.75;;;;;;;-6.71;100.00;98889.19;6202130;23;20024;-60
2024/01/25 09:44:45;;;;;;;3.05;1.77;;;;;;;-6.70;100.00;98890.88;6201783;23;20024;-60
2024/01/25 09:47:16;;;;;;;4.18;2.20;;;;;;;-6.71;100.00;98899.34;6189121;23;20023;-61
2024/01/25 09:49:47;;;;;;;2.50;1.70;;;;;;;-6.72;100.00;98897.59;6203559;23;20024;-59
2024/01/25 09:52:24;;;;;;;2.95;1.73;;;;;;;-7.06;100.00;98840.72;6188365;23;20020;-60
2024/01/25 09:54:56;;;;;;;3.25;2.20;;;;;;;-6.73;100.00;98900.97;6202700;23;20523;-61
2024/01/25 09:57:32;;;;;;;2.50;1.88;;;;;;;-6.73;100.00;98906.03;6188169;23;20032;-60
2024/01/25 10:00:03;;;;;;;3.45;1.73;;;;;;;-6.72;100.00;98912.84;6203886;23;20034;-60
2024/01/25 10:02:34;;;;;;;5.20;2.05;;;;;;;-6.79;100.00;98900.75;6189328;23;20047;-62
2024/01/25 10:05:06;;;;;;;5.03;1.88;;;;;;;-6.75;100.00;98907.66;6203194;22;20057;-58
2024/01/25 10:07:44;;;;;;;1.70;1.60;;;;;;;-6.76;100.00;98921.19;6186556;23;20024;-61
2024/01/25 10:10:16;;;;;;;1.88;1.70;;;;;;;-6.76;100.00;98911.03;6188039;23;20095;-62
2024/01/25 10:12:49;;;;;;;3.97;1.88;;;;;;;-6.81;100.00;98912.56;6203064;23;20387;-59
2024/01/25 10:15:20;;;;;;;4.32;1.90;;;;;;;-6.79;100.00;98923.63;6187841;23;20031;-59
2024/01/25 10:17:51;;;;;;;3.10;1.77;;;;;;;-6.78;100.00;98922.81;6202787;23;20030;-60
2024/01/25 10:20:44;;;;;;;2.17;1.75;;;;;;;-6.84;100.00;98925.16;6187232;23;20034;-60
2024/01/25 10:23:16;;;;;;;3.28;1.55;;;;;;;-6.89;100.00;98903.84;6187813;23;20102;-61
2024/01/25 10:25:47;;;;;;;3.38;1.92;;;;;;;-6.78;100.00;98938.06;6202585;23;20028;-57
2024/01/25 10:28:19;;;;;;;4.50;1.90;;;;;;;-6.79;100.00;98941.41;6187932;23;20028;-59
2024/01/25 10:30:50;;;;;;;2.05;1.58;;;;;;;-6.80;100.00;98934.59;6202132;23;20016;-60
2024/01/25 10:33:21;;;;;;;2.17;1.80;;;;;;;-6.77;100.00;98949.94;6187917;23;20035;-60
2024/01/25 10:36:01;;;;;;;3.20;1.90;;;;;;;-6.78;100.00;98948.22;6201981;23;20096;-57
2024/01/25 10:38:33;;;;;;;;;;;;;;;-6.79;100.00;98943.94;6189127;23;20051;-59
2024/01/25 10:41:07;;;;;;;1.92;1.60;;;;;;;-6.78;100.00;98953.31;6202642;23;19973;-61
2024/01/25 10:43:39;;;;;;;3.90;1.95;;;;;;;-6.83;100.00;98959.91;6187461;23;20102;-60
2024/01/25 10:46:11;;;;;;;1.80;1.70;;;;;;;-6.81;100.00;98958.28;6201951;23;20035;-59
2024/01/25 10:48:44;;;;;;;2.42;1.50;;;;;;;-6.80;100.00;98965.09;6186923;23;20066;-61
2024/01/25 10:51:18;;;;;;;2.33;1.90;;;;;;;-6.79;100.00;98969.34;6187655;23;20086;-61
2024/01/25 10:53:49;;;;;;;3.40;1.90;;;;;;;-6.77;100.00;98975.34;6202525;23;20036;-61
2024/01/25 10:56:21;;;;;;;4.65;1.40;;;;;;;-6.76;100.00;98977.09;6188240;23;20344;-59
2024/01/25 10:58:53;;;;;;;4.93;1.80;;;;;;;-6.73;100.00;98982.25;6202623;23;20031;-61
2024/01/25 11:01:25;;;;;;;4.85;2.53;;;;;;;-6.71;100.00;98995.88;6187441;23;20017;-59
2024/01/25 11:03:56;;;;;;;4.15;1.83;;;;;;;-6.69;100.00;98985.75;6202982;23;20091;-60
2024/01/25 11:06:29;;;;;;;2.78;2.10;;;;;;;-6.68;100.00;98995.97;6187659;23;20043;-60
2024/01/25 11:09:06;;;;;;;4.13;2.08;;;;;;;-6.69;100.00;98988.28;6202935;23;20020;-59
2024/01/25 11:11:38;;;;;;;3.75;1.60;;;;;;;-6.74;100.00;98980.50;6187501;23;20078;-61
2024/01/25 11:14:16;;;;;;;2.10;1.80;;;;;;;-6.82;100.00;98997.19;6202546;23;20040;-59
2024/01/25 11:16:47;;;;;;;3.22;2.28;;;;;;;-6.71;100.00;98995.88;6187151;23;20113;-60
2024/01/25 11:19:22;;;;;;;4.93;1.67;;;;;;;-6.72;100.00;98994.97;6188386;23;20030;-59
2024/01/25 11:21:54;;;;;;;3.22;2.13;;;;;;;-6.72;100.00;99007.69;6204369;23;20020;-58
2024/01/25 11:24:26;;;;;;;4.63;2.80;;;;;;;-6.70;100.00;99014.50;6188718;23;20035;-58
2024/01/25 11:26:56;;;;;;;3.75;2.10;;;;;;;-6.71;100.00;99016.19;6204178;23;20436;-60
2024/01/25 11:29:29;;;;;;;1.95;1.85;;;;;;;-6.76;100.00;99017.72;6189089;23;20375;-60
2024/01/25 11:31:59;;;;;;;2.17;1.98;;;;;;;-6.75;100.00;99019.44;6203850;23;20028;-59
2024/01/25 11:34:31;;;;;;;2.45;1.98;;;;;;;-6.76;100.00;99038.03;6188698;23;20135;-58
2024/01/25 11:37:02;;;;;;;3.40;1.85;;;;;;;-6.77;100.00;99041.38;6204667;23;20073;-59
2024/01/25 11:39:34;;;;;;;2.90;2.10;;;;;;;-6.76;100.00;99043.13;6190688;23;20453;-57
2024/01/25 11:42:05;;;;;;;2.67;1.75;;;;;;;-6.78;100.00;99049.81;6204769;23;20024;-58